Time;durP1;ratioP1;P1;durP2;ratioP2;P2;SDS_P1;SDS_P2;PMS_P1;PMS_P2;Temp;Humidity;BMP_temperature;BMP_pressure;BME280_temperature;BME280_humidity;BME280_pressure;Samples;Min_cycle;Max_cycle;Signal;HPM_P1;HPM_P2
2023/12/25 00:02:02;;;;;;;0.13;0.13;;;12.10;99.90;;;;;;5074846;28;20467;-76
2023/12/25 00:04:27;;;;;;;0.55;0.55;;;12.00;99.90;;;;;;5060533;28;20108;-77
2023/12/25 00:06:54;;;;;;;0.28;0.28;;;12.00;99.90;;;;;;5057204;28;20040;-77
2023/12/25 00:09:19;;;;;;;0.10;0.10;;;12.00;99.90;;;;;;5070111;28;20487;-77
2023/12/25 00:11:45;;;;;;;0.57;0.45;;;11.90;99.90;;;;;;5062185;28;20049;-76
2023/12/25 00:14:12;;;;;;;12.68;0.93;;;12.00;99.90;;;;;;5062860;28;20544;-79
2023/12/25 00:16:37;;;;;;;0.13;0.13;;;12.00;99.90;;;;;;5058264;28;20044;-76
2023/12/25 00:19:03;;;;;;;17.73;1.00;;;11.90;99.90;;;;;;5071334;28;20055;-78
2023/12/25 00:21:29;;;;;;;0.10;0.10;;;11.90;99.90;;;;;;5053297;28;20045;-76
2023/12/25 00:23:54;;;;;;;0.43;0.43;;;11.80;99.90;;;;;;5049599;28;20560;-74
2023/12/25 00:26:20;;;;;;;3.30;0.40;;;11.80;99.90;;;;;;5057274;28;20064;-81
2023/12/25 00:28:46;;;;;;;0.00;0.00;;;11.70;99.90;;;;;;5063920;28;20478;-75
2023/12/25 00:31:12;;;;;;;1.35;0.70;;;11.60;99.90;;;;;;5062639;28;20039;-80
2023/12/25 00:33:38;;;;;;;0.17;0.17;;;11.70;99.90;;;;;;5067883;28;20040;-76
2023/12/25 00:36:04;;;;;;;0.32;0.32;;;11.60;99.90;;;;;;5055109;28;20036;-75
2023/12/25 00:38:30;;;;;;;1.35;1.25;;;11.60;99.90;;;;;;5053089;28;20603;-77
2023/12/25 00:40:55;;;;;;;1.55;0.52;;;11.60;99.90;;;;;;5050902;28;20056;-78
2023/12/25 00:43:21;;;;;;;0.50;0.50;;;11.50;99.90;;;;;;5047009;28;20047;-77
2023/12/25 00:45:46;;;;;;;0.45;0.45;;;11.50;99.90;;;;;;5061631;28;20041;-77
2023/12/25 00:48:12;;;;;;;0.22;0.22;;;11.50;99.90;;;;;;5066301;28;20036;-75
2023/12/25 00:50:37;;;;;;;0.05;0.03;;;11.40;99.90;;;;;;5063222;28;20044;-78
2023/12/25 00:53:03;;;;;;;0.80;0.80;;;11.40;99.90;;;;;;5065340;28;20170;-75
2023/12/25 00:55:28;;;;;;;0.00;0.00;;;11.40;99.90;;;;;;5060713;28;20048;-75
2023/12/25 00:57:54;;;;;;;1.35;0.73;;;11.30;99.90;;;;;;5093605;28;20033;-72
2023/12/25 01:00:20;;;;;;;1.15;0.40;;;11.30;99.90;;;;;;5061245;28;20032;-76
2023/12/25 01:02:46;;;;;;;0.10;0.10;;;11.40;99.90;;;;;;5067234;28;20071;-77
2023/12/25 01:05:11;;;;;;;0.30;0.30;;;11.40;99.90;;;;;;5067375;28;20792;-74
2023/12/25 01:07:37;;;;;;;0.35;0.35;;;11.40;99.90;;;;;;5063202;28;20044;-76
2023/12/25 01:10:02;;;;;;;0.00;0.00;;;11.40;99.90;;;;;;5064172;28;20376;-76
2023/12/25 01:12:29;;;;;;;0.52;0.30;;;11.40;99.90;;;;;;5063719;28;20142;-72
2023/12/25 01:14:55;;;;;;;0.47;0.47;;;11.40;99.90;;;;;;5098451;28;20052;-74
2023/12/25 01:17:20;;;;;;;0.75;0.50;;;11.40;99.90;;;;;;5063625;28;20037;-78
2023/12/25 01:19:46;;;;;;;0.10;0.10;;;11.40;99.90;;;;;;5067812;28;20024;-75
2023/12/25 01:22:11;;;;;;;0.45;0.45;;;11.40;99.90;;;;;;5060363;28;20047;-74
2023/12/25 01:24:37;;;;;;;1.00;0.85;;;11.40;99.90;;;;;;5080322;28;20127;-76
2023/12/25 01:27:03;;;;;;;0.10;0.10;;;11.50;99.90;;;;;;5083994;28;20040;-79
2023/12/25 01:29:28;;;;;;;0.80;0.55;;;11.50;99.90;;;;;;5067827;28;20101;-75
2023/12/25 01:31:54;;;;;;;0.20;0.20;;;11.40;99.90;;;;;;5064382;28;20037;-76
2023/12/25 01:34:19;;;;;;;1.42;0.32;;;11.50;99.90;;;;;;5065219;28;20238;-74
2023/12/25 01:36:45;;;;;;;0.30;0.30;;;11.40;99.90;;;;;;5056357;28;20047;-77
2023/12/25 01:39:12;;;;;;;0.03;0.03;;;11.40;99.90;;;;;;5068402;28;20398;-73
2023/12/25 01:41:38;;;;;;;0.77;0.40;;;11.30;99.90;;;;;;5064772;28;20467;-77
2023/12/25 01:44:03;;;;;;;0.75;0.30;;;11.30;99.90;;;;;;5059250;28;20115;-76
2023/12/25 01:46:29;;;;;;;0.10;0.10;;;11.40;99.90;;;;;;5059355;28;20677;-80
2023/12/25 01:48:55;;;;;;;4.28;1.02;;;11.40;99.90;;;;;;5066205;28;20080;-77
2023/12/25 01:51:24;;;;;;;1.02;0.50;;;11.40;99.90;;;;;;5062678;28;20126;-76
2023/12/25 01:53:50;;;;;;;0.10;0.10;;;11.40;99.90;;;;;;5063109;28;20035;-78
2023/12/25 01:56:16;;;;;;;0.00;0.00;;;11.30;99.90;;;;;;5047457;28;20041;-74
2023/12/25 01:58:43;;;;;;;0.65;0.65;;;11.30;99.90;;;;;;5055092;28;20032;-77
2023/12/25 02:01:08;;;;;;;0.00;0.00;;;11.30;99.90;;;;;;5062321;28;20476;-75
2023/12/25 02:03:34;;;;;;;0.10;0.03;;;11.40;99.90;;;;;;5047136;28;20098;-76
2023/12/25 02:06:00;;;;;;;0.47;0.47;;;11.30;99.90;;;;;;5052086;28;20093;-75
2023/12/25 02:08:28;;;;;;;0.20;0.20;;;11.40;99.90;;;;;;5068597;28;20033;-75
2023/12/25 02:10:53;;;;;;;0.93;0.35;;;11.30;99.90;;;;;;5043910;28;20048;-77
2023/12/25 02:13:19;;;;;;;0.00;0.00;;;11.30;99.90;;;;;;5094001;28;20074;-79
2023/12/25 02:15:44;;;;;;;0.10;0.10;;;11.30;99.90;;;;;;5064875;28;20040;-74
2023/12/25 02:18:10;;;;;;;19.10;0.57;;;11.30;99.90;;;;;;5061135;28;20132;-73
2023/12/25 02:20:36;;;;;;;0.20;0.20;;;11.30;99.90;;;;;;5064959;28;20040;-75
2023/12/25 02:23:06;;;;;;;0.00;0.00;;;11.30;99.90;;;;;;5067073;28;20040;-77
2023/12/25 02:25:34;;;;;;;0.40;0.40;;;11.40;99.90;;;;;;5065961;28;20056;-77
2023/12/25 02:28:00;;;;;;;0.22;0.22;;;11.30;99.90;;;;;;5067410;28;20094;-73
2023/12/25 02:30:27;;;;;;;0.00;0.00;;;11.40;99.90;;;;;;5066746;28;20036;-75
2023/12/25 02:32:52;;;;;;;0.28;0.28;;;11.40;99.90;;;;;;5069273;28;20059;-75
2023/12/25 02:35:18;;;;;;;1.63;0.60;;;11.40;99.90;;;;;;5063014;28;20491;-76
2023/12/25 02:37:43;;;;;;;0.00;0.00;;;11.30;99.90;;;;;;5070888;28;20064;-79
2023/12/25 02:40:09;;;;;;;2.55;0.35;;;11.30;99.90;;;;;;5048712;28;20135;-77
2023/12/25 02:42:35;;;;;;;0.17;0.17;;;11.30;99.90;;;;;;5073162;28;20086;-76
2023/12/25 02:45:00;;;;;;;0.20;0.20;;;11.20;99.90;;;;;;5068195;28;20040;-76
2023/12/25 02:47:26;;;;;;;0.10;0.10;;;11.30;99.90;;;;;;5062566;28;20454;-76
2023/12/25 02:49:52;;;;;;;0.10;0.10;;;11.30;99.90;;;;;;5068352;28;20412;-76
2023/12/25 02:52:18;;;;;;;0.08;0.08;;;11.20;99.90;;;;;;5062507;28;20105;-77
2023/12/25 02:54:43;;;;;;;0.20;0.20;;;11.20;99.90;;;;;;5083300;28;20036;-73
2023/12/25 02:57:09;;;;;;;0.60;0.40;;;11.30;99.90;;;;;;5059849;28;20032;-73
2023/12/25 02:59:34;;;;;;;4.55;0.28;;;11.30;99.90;;;;;;5068665;28;20088;-74
2023/12/25 03:02:00;;;;;;;0.00;0.00;;;11.30;99.90;;;;;;5063833;28;20127;-78
2023/12/25 03:04:25;;;;;;;0.10;0.10;;;11.30;99.90;;;;;;5067098;28;20081;-74
2023/12/25 03:06:51;;;;;;;0.98;0.38;;;11.30;99.90;;;;;;5063080;28;20040;-72
2023/12/25 03:09:18;;;;;;;0.10;0.10;;;11.30;99.90;;;;;;5067056;28;20044;-74
2023/12/25 03:11:45;;;;;;;0.08;0.08;;;11.30;99.90;;;;;;5062014;28;20040;-72
2023/12/25 03:14:10;;;;;;;4.07;0.65;;;11.30;99.90;;;;;;5066212;28;20123;-72
2023/12/25 03:16:36;;;;;;;0.63;0.20;;;11.30;99.90;;;;;;5066495;28;20442;-73
2023/12/25 03:19:02;;;;;;;0.40;0.40;;;11.30;99.90;;;;;;5072149;28;20028;-77
2023/12/25 03:21:28;;;;;;;1.10;0.20;;;11.20;99.90;;;;;;5061112;28;20094;-76
2023/12/25 03:23:53;;;;;;;0.10;0.10;;;11.20;99.90;;;;;;5066135;28;20037;-75
2023/12/25 03:26:19;;;;;;;0.10;0.10;;;11.10;99.90;;;;;;5064231;28;20051;-77
2023/12/25 03:28:44;;;;;;;2.65;0.25;;;11.10;99.90;;;;;;5070288;28;20275;-77
2023/12/25 03:31:10;;;;;;;0.00;0.00;;;11.00;99.90;;;;;;5066261;28;20044;-76
2023/12/25 03:33:36;;;;;;;0.80;0.10;;;11.00;99.90;;;;;;5063791;28;20028;-73
2023/12/25 03:36:03;;;;;;;0.47;0.43;;;11.00;99.90;;;;;;5064932;28;20050;-75
2023/12/25 03:38:28;;;;;;;0.10;0.10;;;11.00;99.90;;;;;;5068161;28;20410;-78
2023/12/25 03:40:54;;;;;;;0.22;0.22;;;11.00;99.90;;;;;;5047979;28;21904;-71
2023/12/25 03:43:20;;;;;;;0.15;0.15;;;11.00;99.90;;;;;;5065726;28;20463;-77
2023/12/25 03:45:45;;;;;;;0.35;0.10;;;11.00;99.90;;;;;;5059999;28;20467;-75
2023/12/25 03:48:11;;;;;;;0.52;0.40;;;11.00;99.90;;;;;;5066189;28;20036;-81
2023/12/25 03:50:36;;;;;;;0.05;0.05;;;11.00;99.90;;;;;;5064631;28;20133;-75
2023/12/25 03:53:02;;;;;;;0.20;0.20;;;11.10;99.90;;;;;;5063640;28;20166;-75
2023/12/25 03:55:28;;;;;;;0.00;0.00;;;11.00;99.90;;;;;;5065913;28;20033;-72
2023/12/25 03:57:53;;;;;;;0.10;0.10;;;11.10;99.90;;;;;;5065914;28;20494;-76
2023/12/25 04:00:19;;;;;;;0.00;0.00;;;11.10;99.90;;;;;;5065905;28;20037;-75
2023/12/25 04:02:44;;;;;;;0.10;0.10;;;11.10;99.90;;;;;;5063710;28;20463;-78
2023/12/25 04:05:10;;;;;;;1.80;1.65;;;11.10;99.90;;;;;;5058465;28;20056;-77
2023/12/25 04:07:36;;;;;;;0.10;0.10;;;11.10;99.90;;;;;;5064205;28;20040;-71
2023/12/25 04:10:02;;;;;;;0.10;0.10;;;11.10;99.90;;;;;;5060587;28;20535;-77
2023/12/25 04:12:28;;;;;;;1.15;0.32;;;11.10;99.90;;;;;;5096330;28;20410;-76
2023/12/25 04:14:53;;;;;;;0.10;0.10;;;11.10;99.90;;;;;;5066378;28;20064;-73
2023/12/25 04:17:19;;;;;;;0.22;0.22;;;11.00;99.90;;;;;;5063897;28;20037;-78
2023/12/25 04:19:44;;;;;;;0.40;0.40;;;11.10;99.90;;;;;;5051264;28;20036;-72
2023/12/25 04:22:13;;;;;;;0.15;0.10;;;11.00;99.90;;;;;;5063253;28;20045;-73
2023/12/25 04:24:38;;;;;;;0.30;0.30;;;11.00;99.90;;;;;;5061854;28;20390;-73
2023/12/25 04:27:04;;;;;;;0.68;0.68;;;11.10;99.90;;;;;;5064611;28;20032;-75
2023/12/25 04:29:30;;;;;;;4.85;0.15;;;11.10;99.90;;;;;;5097110;28;20045;-78
2023/12/25 04:31:55;;;;;;;0.10;0.10;;;11.20;99.90;;;;;;5063037;28;20423;-77
2023/12/25 04:34:22;;;;;;;2.45;0.57;;;11.20;99.90;;;;;;5063500;28;20822;-78
2023/12/25 04:36:47;;;;;;;0.45;0.45;;;11.20;99.90;;;;;;5065253;28;20055;-72
2023/12/25 04:39:13;;;;;;;1.85;0.20;;;11.20;99.90;;;;;;5068710;28;20391;-74
2023/12/25 04:41:38;;;;;;;1.30;0.65;;;11.20;99.90;;;;;;5064777;28;20032;-77
2023/12/25 04:44:04;;;;;;;0.25;0.25;;;11.20;99.90;;;;;;5059953;28;20044;-75
2023/12/25 04:46:29;;;;;;;0.10;0.10;;;11.20;99.90;;;;;;5062470;28;20048;-76
2023/12/25 04:48:55;;;;;;;0.10;0.10;;;11.10;99.90;;;;;;5067429;28;20770;-73
2023/12/25 04:51:20;;;;;;;0.43;0.17;;;11.20;99.90;;;;;;5055802;28;20158;-74
2023/12/25 04:53:46;;;;;;;0.10;0.10;;;11.10;99.90;;;;;;5066136;28;20047;-74
2023/12/25 04:56:11;;;;;;;0.10;0.10;;;11.10;99.90;;;;;;5064297;28;20402;-72
2023/12/25 04:58:37;;;;;;;1.80;0.20;;;11.10;99.90;;;;;;5061490;28;20043;-76
2023/12/25 05:01:06;;;;;;;0.20;0.20;;;11.10;99.90;;;;;;5048077;28;20126;-73
2023/12/25 05:03:32;;;;;;;3.40;0.20;;;11.10;99.90;;;;;;5064466;28;20167;-76
2023/12/25 05:05:57;;;;;;;0.57;0.57;;;11.20;99.90;;;;;;5064693;28;20423;-75
2023/12/25 05:08:23;;;;;;;0.13;0.13;;;11.20;99.90;;;;;;5061396;28;20444;-78
2023/12/25 05:10:49;;;;;;;0.35;0.35;;;11.10;99.90;;;;;;5050676;28;20127;-76
2023/12/25 05:13:14;;;;;;;0.15;0.10;;;11.10;99.90;;;;;;5062699;28;20082;-76
2023/12/25 05:15:40;;;;;;;0.10;0.10;;;11.10;99.90;;;;;;5066932;28;20050;-72
2023/12/25 05:18:06;;;;;;;0.22;0.22;;;11.10;99.90;;;;;;5060736;28;20427;-74
2023/12/25 05:20:31;;;;;;;1.88;0.30;;;11.10;99.90;;;;;;5065759;28;20032;-75
2023/12/25 05:22:57;;;;;;;0.10;0.10;;;11.10;99.90;;;;;;5056215;28;20036;-76
2023/12/25 05:25:22;;;;;;;3.10;0.20;;;11.10;99.90;;;;;;5062915;28;20080;-73
2023/12/25 05:27:48;;;;;;;4.47;2.72;;;11.10;99.90;;;;;;5090460;28;20123;-80
2023/12/25 05:30:14;;;;;;;0.00;0.00;;;11.10;99.90;;;;;;5065890;28;20443;-76
2023/12/25 05:32:39;;;;;;;0.52;0.20;;;11.10;99.90;;;;;;5064662;28;20566;-76
2023/12/25 05:35:05;;;;;;;0.35;0.35;;;11.10;99.90;;;;;;5064182;28;20029;-75
2023/12/25 05:37:31;;;;;;;4.25;0.55;;;11.00;99.90;;;;;;5048876;28;20052;-76
2023/12/25 05:39:57;;;;;;;0.32;0.10;;;11.00;99.90;;;;;;5091629;28;20043;-80
2023/12/25 05:42:23;;;;;;;0.10;0.10;;;11.10;99.90;;;;;;5063541;28;20037;-75
2023/12/25 05:44:48;;;;;;;0.10;0.10;;;11.00;99.90;;;;;;5066627;28;20115;-80
2023/12/25 05:47:14;;;;;;;0.10;0.10;;;11.10;99.90;;;;;;5068812;28;20091;-78
2023/12/25 05:49:40;;;;;;;0.10;0.10;;;11.20;99.90;;;;;;5070989;28;20040;-74
2023/12/25 05:52:06;;;;;;;9.68;0.25;;;11.20;99.90;;;;;;5051087;28;20041;-75
2023/12/25 05:54:31;;;;;;;0.15;0.15;;;11.10;99.90;;;;;;5066086;28;20029;-75
2023/12/25 05:56:57;;;;;;;0.03;0.03;;;11.10;99.90;;;;;;5064906;28;20427;-80
2023/12/25 05:59:23;;;;;;;0.30;0.30;;;11.00;99.90;;;;;;5072293;28;20471;-77
2023/12/25 06:01:48;;;;;;;0.22;0.22;;;11.00;99.90;;;;;;5062406;28;20041;-77
2023/12/25 06:04:14;;;;;;;4.75;0.43;;;11.10;99.90;;;;;;5063293;28;20036;-76
2023/12/25 06:06:40;;;;;;;0.20;0.20;;;11.00;99.90;;;;;;5068505;28;20399;-76
2023/12/25 06:09:06;;;;;;;0.10;0.10;;;11.00;99.90;;;;;;5071801;28;20515;-75
2023/12/25 06:11:32;;;;;;;2.63;0.52;;;11.20;99.90;;;;;;5060159;28;20051;-74
2023/12/25 06:13:57;;;;;;;0.75;0.75;;;11.10;99.90;;;;;;5068975;28;20040;-78
2023/12/25 06:16:23;;;;;;;0.10;0.10;;;11.20;99.90;;;;;;5063689;28;20778;-77
2023/12/25 06:18:49;;;;;;;0.28;0.28;;;11.10;99.90;;;;;;5061378;28;20574;-76
2023/12/25 06:21:14;;;;;;;0.40;0.40;;;11.10;99.90;;;;;;5066057;28;20044;-74
2023/12/25 06:23:40;;;;;;;3.28;0.30;;;11.10;99.90;;;;;;5060603;28;20487;-76
2023/12/25 06:26:06;;;;;;;0.28;0.20;;;11.10;99.90;;;;;;5065591;28;20044;-80
2023/12/25 06:28:31;;;;;;;2.45;0.57;;;11.20;99.90;;;;;;5067482;28;20049;-79
2023/12/25 06:30:57;;;;;;;3.15;0.40;;;11.10;99.90;;;;;;5067471;28;20079;-73
2023/12/25 06:33:23;;;;;;;0.10;0.10;;;11.10;99.90;;;;;;5066813;28;20029;-77
2023/12/25 06:35:48;;;;;;;0.10;0.10;;;11.00;99.90;;;;;;5062648;28;20032;-77
2023/12/25 06:38:14;;;;;;;0.20;0.20;;;11.00;99.90;;;;;;5063424;28;20081;-79
2023/12/25 06:40:39;;;;;;;0.08;0.08;;;11.00;99.90;;;;;;5062952;28;20044;-76
2023/12/25 06:43:06;;;;;;;0.10;0.10;;;10.90;99.90;;;;;;5089400;28;20402;-74
2023/12/25 06:45:31;;;;;;;1.75;0.57;;;10.80;99.90;;;;;;5066796;28;20117;-78
2023/12/25 06:47:57;;;;;;;0.20;0.20;;;10.80;99.90;;;;;;5071349;28;20482;-75
2023/12/25 06:50:22;;;;;;;0.25;0.25;;;10.80;99.90;;;;;;5051676;28;20111;-77
2023/12/25 06:52:48;;;;;;;0.10;0.10;;;10.70;99.90;;;;;;5067442;28;20102;-75
2023/12/25 06:55:14;;;;;;;1.13;0.30;;;10.70;99.90;;;;;;5067293;28;20029;-77
2023/12/25 06:57:40;;;;;;;0.10;0.10;;;10.70;99.90;;;;;;5071495;28;20090;-78
2023/12/25 07:00:06;;;;;;;0.40;0.40;;;10.70;99.90;;;;;;5046385;28;20036;-75
2023/12/25 07:02:32;;;;;;;0.10;0.10;;;10.70;99.90;;;;;;5065327;28;20051;-77
2023/12/25 07:04:57;;;;;;;0.15;0.15;;;10.70;99.90;;;;;;5067264;28;20475;-76
2023/12/25 07:07:23;;;;;;;0.10;0.10;;;10.60;99.90;;;;;;5064724;28;20549;-78
2023/12/25 07:09:48;;;;;;;0.10;0.10;;;10.60;99.90;;;;;;5067242;28;20040;-77
2023/12/25 07:12:14;;;;;;;30.27;1.48;;;10.70;99.90;;;;;;5062068;28;20048;-75
2023/12/25 07:14:42;;;;;;;0.30;0.30;;;10.70;99.90;;;;;;5068333;28;20498;-73
2023/12/25 07:17:08;;;;;;;0.03;0.03;;;10.70;99.90;;;;;;5062972;28;20045;-75
2023/12/25 07:19:34;;;;;;;0.90;0.20;;;10.70;99.90;;;;;;5085982;28;20517;-78
2023/12/25 07:22:01;;;;;;;0.75;0.65;;;10.70;99.90;;;;;;5065459;28;20368;-72
2023/12/25 07:24:27;;;;;;;0.10;0.10;;;10.60;99.90;;;;;;5065693;28;20163;-75
2023/12/25 07:26:52;;;;;;;0.28;0.20;;;10.60;99.90;;;;;;5065151;28;20546;-76
2023/12/25 07:29:18;;;;;;;0.00;0.00;;;10.50;99.90;;;;;;5062692;28;20045;-78
2023/12/25 07:31:44;;;;;;;0.10;0.10;;;10.50;99.90;;;;;;5077722;28;20051;-78
2023/12/25 07:34:09;;;;;;;0.20;0.20;;;10.50;99.90;;;;;;5066408;28;20399;-75
2023/12/25 07:36:35;;;;;;;0.10;0.10;;;10.50;99.90;;;;;;5068489;28;20102;-74
2023/12/25 07:39:01;;;;;;;0.25;0.25;;;10.40;99.90;;;;;;5067229;28;20055;-78
2023/12/25 07:41:26;;;;;;;0.10;0.10;;;10.40;99.90;;;;;;5066467;28;20105;-76
2023/12/25 07:43:52;;;;;;;0.38;0.22;;;10.40;99.90;;;;;;5067576;28;20482;-75
2023/12/25 07:46:17;;;;;;;0.70;0.40;;;10.30;99.90;;;;;;5061832;28;20045;-78
2023/12/25 07:48:43;;;;;;;0.10;0.10;;;10.30;99.90;;;;;;5061846;28;20040;-76
2023/12/25 07:51:08;;;;;;;6.65;0.55;;;10.20;99.90;;;;;;5067317;28;20464;-75
2023/12/25 07:53:34;;;;;;;0.22;0.13;;;10.20;99.90;;;;;;5067406;28;20038;-76
2023/12/25 07:55:59;;;;;;;0.10;0.10;;;10.10;99.90;;;;;;5063790;28;20074;-76
2023/12/25 07:58:25;;;;;;;0.10;0.10;;;10.10;99.90;;;;;;5063451;28;20484;-78
2023/12/25 08:00:51;;;;;;;0.00;0.00;;;10.00;99.90;;;;;;5063901;28;20056;-73
2023/12/25 08:03:16;;;;;;;0.10;0.10;;;10.00;99.90;;;;;;5063858;28;20086;-78
2023/12/25 08:05:42;;;;;;;0.00;0.00;;;9.90;99.90;;;;;;5065980;28;20041;-80
2023/12/25 08:08:08;;;;;;;0.65;0.20;;;9.90;99.90;;;;;;5068555;28;20036;-80
2023/12/25 08:10:34;;;;;;;0.73;0.73;;;9.90;99.90;;;;;;5060460;28;20058;-78
2023/12/25 08:13:01;;;;;;;0.00;0.00;;;9.90;99.90;;;;;;5063924;28;20047;-76
2023/12/25 08:15:28;;;;;;;0.38;0.30;;;9.90;99.90;;;;;;5064211;28;20043;-76
2023/12/25 08:17:53;;;;;;;0.10;0.10;;;9.90;99.90;;;;;;5060361;28;20037;-79
2023/12/25 08:20:19;;;;;;;0.00;0.00;;;9.90;99.90;;;;;;5060894;28;20032;-74
2023/12/25 08:22:45;;;;;;;0.10;0.10;;;9.90;99.90;;;;;;5043510;28;20416;-74
2023/12/25 08:25:10;;;;;;;0.10;0.10;;;9.90;99.90;;;;;;5068658;28;20040;-77
2023/12/25 08:27:36;;;;;;;0.10;0.10;;;9.80;99.90;;;;;;5066567;28;20505;-75
2023/12/25 08:30:03;;;;;;;0.47;0.10;;;9.80;99.90;;;;;;5065262;28;20067;-78
2023/12/25 08:32:29;;;;;;;0.10;0.10;;;9.80;99.90;;;;;;5063628;28;20124;-77
2023/12/25 08:34:55;;;;;;;0.20;0.20;;;9.80;99.90;;;;;;5081722;28;20036;-72
2023/12/25 08:37:21;;;;;;;3.58;0.43;;;9.80;99.90;;;;;;5060628;28;20041;-73
2023/12/25 08:39:47;;;;;;;1.33;1.15;;;9.70;99.90;;;;;;5066939;28;20039;-73
2023/12/25 08:42:13;;;;;;;0.15;0.10;;;9.70;99.90;;;;;;5062279;28;20427;-74
2023/12/25 08:44:38;;;;;;;0.40;0.40;;;9.60;99.90;;;;;;5063554;28;20036;-74
2023/12/25 08:47:04;;;;;;;0.00;0.00;;;9.60;99.90;;;;;;5066839;28;20036;-75
2023/12/25 08:49:30;;;;;;;2.10;0.17;;;9.50;99.90;;;;;;5059186;28;20047;-72
2023/12/25 08:51:56;;;;;;;0.28;0.22;;;9.50;99.90;;;;;;5059367;28;20055;-73
2023/12/25 08:54:21;;;;;;;0.10;0.10;;;9.50;99.90;;;;;;5087300;28;20423;-73
2023/12/25 08:56:47;;;;;;;0.40;0.20;;;9.50;99.90;;;;;;5082316;28;20386;-73
2023/12/25 08:59:13;;;;;;;0.20;0.20;;;9.50;99.90;;;;;;5056121;28;20036;-75
2023/12/25 09:01:39;;;;;;;0.03;0.03;;;9.50;99.90;;;;;;5061482;28;20404;-74
2023/12/25 09:04:05;;;;;;;4.60;0.32;;;9.50;99.90;;;;;;5059494;28;20044;-73
2023/12/25 09:06:31;;;;;;;0.43;0.30;;;9.50;99.90;;;;;;5061752;28;20131;-77
2023/12/25 09:08:56;;;;;;;0.10;0.10;;;9.60;99.90;;;;;;5062131;28;20115;-74
2023/12/25 09:11:23;;;;;;;0.05;0.05;;;9.60;99.90;;;;;;5058029;28;20548;-76
2023/12/25 09:13:48;;;;;;;0.00;0.00;;;9.60;99.90;;;;;;5062749;28;20040;-73
2023/12/25 09:16:14;;;;;;;0.35;0.30;;;9.60;99.90;;;;;;5064203;28;20097;-75
2023/12/25 09:18:40;;;;;;;3.30;0.43;;;9.60;99.90;;;;;;5061707;28;20037;-73
2023/12/25 09:21:05;;;;;;;0.00;0.00;;;9.60;99.90;;;;;;5068279;28;20044;-73
2023/12/25 09:23:31;;;;;;;0.40;0.40;;;9.70;99.90;;;;;;5064634;28;20072;-74
2023/12/25 09:25:56;;;;;;;2.63;0.35;;;9.70;99.90;;;;;;5065069;28;20037;-77
2023/12/25 09:28:22;;;;;;;0.47;0.47;;;9.70;99.90;;;;;;5059856;28;20032;-75
2023/12/25 09:30:48;;;;;;;0.00;0.00;;;9.70;99.90;;;;;;5065340;28;20047;-79
2023/12/25 09:33:14;;;;;;;0.10;0.10;;;9.70;99.90;;;;;;5061360;28;20040;-78
2023/12/25 09:35:40;;;;;;;0.10;0.10;;;9.80;99.90;;;;;;5063597;28;20033;-76
2023/12/25 09:38:05;;;;;;;0.10;0.10;;;9.80;99.90;;;;;;5064213;28;20468;-73
2023/12/25 09:40:31;;;;;;;0.15;0.15;;;9.80;99.90;;;;;;5067040;28;20040;-76
2023/12/25 09:42:59;;;;;;;0.47;0.45;;;9.80;99.90;;;;;;5063671;28;20475;-76
2023/12/25 09:45:26;;;;;;;0.20;0.20;;;9.80;99.90;;;;;;5058366;28;20044;-78
2023/12/25 09:47:52;;;;;;;0.55;0.55;;;9.80;99.90;;;;;;5064037;28;20063;-74
2023/12/25 09:50:21;;;;;;;0.90;0.13;;;9.80;99.90;;;;;;5063683;28;20029;-73
2023/12/25 09:52:47;;;;;;;2.00;0.73;;;9.90;99.90;;;;;;5063284;28;20060;-76
2023/12/25 09:55:13;;;;;;;2.28;0.35;;;10.00;99.90;;;;;;5063468;28;20029;-74
2023/12/25 09:57:40;;;;;;;0.75;0.68;;;10.00;99.90;;;;;;5076911;28;20095;-73
2023/12/25 10:00:08;;;;;;;0.03;0.03;;;10.10;99.90;;;;;;5061704;28;20037;-74
2023/12/25 10:02:37;;;;;;;1.92;0.43;;;10.10;99.90;;;;;;5060772;28;20441;-77
2023/12/25 10:05:04;;;;;;;0.00;0.00;;;10.20;99.90;;;;;;5065519;28;20153;-75
2023/12/25 10:07:29;;;;;;;0.38;0.20;;;10.20;99.90;;;;;;5064885;28;20507;-74
2023/12/25 10:09:57;;;;;;;0.28;0.20;;;10.30;99.90;;;;;;5042250;28;20043;-75
2023/12/25 10:12:23;;;;;;;0.70;0.35;;;10.30;99.90;;;;;;5063339;28;20040;-75
2023/12/25 10:14:48;;;;;;;2.47;0.38;;;10.30;99.90;;;;;;5061551;28;20033;-74
2023/12/25 10:17:15;;;;;;;3.95;0.45;;;10.30;99.90;;;;;;5060212;28;20047;-76
2023/12/25 10:19:52;;;;;;;0.15;0.15;;;10.30;99.90;;;;;;5056822;28;20494;-76
2023/12/25 10:22:32;;;;;;;0.10;0.10;;;10.30;99.90;;;;;;5063204;28;20052;-75
2023/12/25 10:25:09;;;;;;;2.20;0.50;;;10.40;99.90;;;;;;5059298;28;20032;-79
2023/12/25 10:27:38;;;;;;;0.10;0.10;;;10.40;99.90;;;;;;5059158;28;20029;-74
2023/12/25 10:30:13;;;;;;;0.20;0.20;;;10.50;99.90;;;;;;5063641;28;20037;-75
2023/12/25 10:32:39;;;;;;;0.00;0.00;;;10.50;99.90;;;;;;5089735;28;20049;-71
2023/12/25 10:35:17;;;;;;;0.10;0.10;;;10.60;99.90;;;;;;5063189;28;20039;-75
2023/12/25 10:37:43;;;;;;;0.03;0.03;;;10.60;99.90;;;;;;5071568;28;20037;-74
2023/12/25 10:40:18;;;;;;;1.65;0.35;;;10.60;99.90;;;;;;5058539;28;20099;-78
2023/12/25 10:42:48;;;;;;;0.00;0.00;;;10.60;99.90;;;;;;5072746;28;20111;-79
2023/12/25 10:45:19;;;;;;;0.22;0.22;;;10.60;99.90;;;;;;5059720;28;20048;-76
2023/12/25 10:47:47;;;;;;;0.10;0.10;;;10.60;99.90;;;;;;5066893;28;20039;-80
2023/12/25 10:50:13;;;;;;;3.78;0.50;;;10.60;99.90;;;;;;5061945;28;20045;-74
2023/12/25 10:52:41;;;;;;;0.00;0.00;;;10.60;99.90;;;;;;5067092;28;20091;-79
2023/12/25 10:55:08;;;;;;;0.90;0.20;;;10.60;99.90;;;;;;5066618;28;20076;-72
2023/12/25 10:57:34;;;;;;;0.85;0.73;;;10.60;99.90;;;;;;5064710;28;20041;-73
2023/12/25 11:00:03;;;;;;;0.00;0.00;;;10.60;99.90;;;;;;5063820;28;20395;-73
2023/12/25 11:02:33;;;;;;;1.85;1.02;;;10.60;99.90;;;;;;5067150;28;20139;-73
2023/12/25 11:04:59;;;;;;;0.30;0.30;;;10.60;99.90;;;;;;5089264;28;20115;-73
2023/12/25 11:07:24;;;;;;;0.32;0.10;;;10.60;99.90;;;;;;5065767;28;20123;-76
2023/12/25 11:09:52;;;;;;;0.30;0.30;;;10.60;99.90;;;;;;5065063;28;20098;-73
2023/12/25 11:12:19;;;;;;;0.10;0.10;;;10.60;99.90;;;;;;5064977;28;20048;-74
2023/12/25 11:14:45;;;;;;;0.00;0.00;;;10.60;99.90;;;;;;5048838;28;20033;-74
2023/12/25 11:17:11;;;;;;;0.10;0.10;;;10.70;99.90;;;;;;5063842;28;20029;-75
2023/12/25 11:19:36;;;;;;;0.30;0.30;;;10.70;99.90;;;;;;5062463;28;20037;-77
2023/12/25 11:22:26;;;;;;;0.10;0.10;;;10.70;99.90;;;;;;5064409;28;20044;-76
2023/12/25 11:24:52;;;;;;;0.00;0.00;;;10.80;99.90;;;;;;5067642;28;20040;-77
2023/12/25 11:27:19;;;;;;;0.08;0.08;;;10.80;99.90;;;;;;5067713;28;20123;-75
2023/12/25 11:29:45;;;;;;;0.43;0.40;;;10.80;99.90;;;;;;5066897;28;20087;-79
2023/12/25 11:32:12;;;;;;;0.47;0.47;;;10.80;99.90;;;;;;5083694;28;20072;-76
2023/12/25 11:34:43;;;;;;;0.68;0.68;;;10.80;99.90;;;;;;5091323;28;20040;-74
2023/12/25 11:37:23;;;;;;;0.10;0.10;;;10.80;99.90;;;;;;5066703;28;20083;-74
2023/12/25 11:39:56;;;;;;;0.15;0.00;;;10.80;99.90;;;;;;5063385;28;20040;-73
2023/12/25 11:42:22;;;;;;;0.30;0.30;;;10.80;99.90;;;;;;5063919;28;20412;-78
2023/12/25 11:44:50;;;;;;;0.52;0.52;;;10.80;99.90;;;;;;5063287;28;20044;-74
2023/12/25 11:47:27;;;;;;;0.10;0.10;;;10.80;99.90;;;;;;5067580;28;20032;-74
2023/12/25 11:49:54;;;;;;;0.90;0.57;;;10.80;99.90;;;;;;5067230;28;20403;-73
2023/12/25 11:52:42;;;;;;;0.25;0.20;;;10.80;99.90;;;;;;5070789;28;20028;-73
2023/12/25 11:55:08;;;;;;;0.40;0.40;;;10.80;99.90;;;;;;5065558;28;20040;-75
2023/12/25 11:57:34;;;;;;;0.30;0.28;;;10.90;99.90;;;;;;5067806;28;20081;-80
2023/12/25 11:59:59;;;;;;;0.35;0.35;;;10.90;99.90;;;;;;5055722;28;20029;-74
2023/12/25 12:02:26;;;;;;;0.13;0.10;;;10.90;99.90;;;;;;5070128;28;20475;-74
2023/12/25 12:04:53;;;;;;;0.17;0.17;;;10.90;99.90;;;;;;5064060;28;20198;-74
2023/12/25 12:07:18;;;;;;;0.77;0.38;;;10.90;99.90;;;;;;5083225;28;20091;-79
2023/12/25 12:09:44;;;;;;;0.43;0.43;;;10.90;99.90;;;;;;5059724;28;20079;-83
2023/12/25 12:12:09;;;;;;;0.30;0.30;;;11.00;99.90;;;;;;5084262;28;20441;-72
2023/12/25 12:14:37;;;;;;;0.25;0.25;;;11.00;99.90;;;;;;5087300;28;20086;-77
2023/12/25 12:17:03;;;;;;;1.30;0.30;;;11.00;99.90;;;;;;5059241;28;20095;-76
2023/12/25 12:19:29;;;;;;;3.65;0.30;;;11.00;99.90;;;;;;5061578;28;20070;-74
2023/12/25 12:21:55;;;;;;;0.32;0.10;;;11.00;99.90;;;;;;5063166;28;20049;-75
2023/12/25 12:24:28;;;;;;;0.20;0.10;;;11.00;99.90;;;;;;5066299;28;20048;-74
2023/12/25 12:26:54;;;;;;;0.47;0.47;;;11.00;99.90;;;;;;5064505;28;20045;-75
2023/12/25 12:29:20;;;;;;;0.22;0.22;;;11.00;99.90;;;;;;5064569;28;20063;-77
2023/12/25 12:31:45;;;;;;;0.57;0.20;;;11.10;99.90;;;;;;5044410;28;20040;-74
2023/12/25 12:34:14;;;;;;;2.63;0.65;;;11.20;99.90;;;;;;5057535;28;20055;-74
2023/12/25 12:36:40;;;;;;;0.28;0.28;;;11.20;99.90;;;;;;5063160;28;20037;-75
2023/12/25 12:39:05;;;;;;;0.10;0.10;;;11.20;99.90;;;;;;5065653;28;20085;-74
2023/12/25 12:41:31;;;;;;;0.10;0.10;;;11.20;99.90;;;;;;5064384;28;20048;-74
2023/12/25 12:44:00;;;;;;;1.35;0.38;;;11.20;99.90;;;;;;5061199;28;20040;-77